Brunswick, Maine
Current Conditions -  °F | °C
As of 2:37 PM on Thursday 23 Oct 2014 (Local Time) from KIWI Reporting Station
Heavy Rain Heavy Rain  
Wind Chill: 51°   Ceiling: 4900
Heat Index: 51°   Visibility: 1.7mi
Dew Point: 49°   Wind: 8mph
Humidity: 92%   Direction: 50°NE
Pressure: 29.79"   Gusts: NA
Location:  43.92°N, 69.96°W
Report Text: KIWI 231837Z AUTO 05007KT 020V080 1 3/4SM +RA BR BKN049 BKN070 OVC085 11/09 A2979 RMK AO2 P0015 T01060094
Loading
Personal Weather Stations






























Interactive Weather Map
Tropical Storm Tracking
New forecast layout! Learn more

10-Day Weather Forecast

Advertisements
Track Severe Weather on mobile